LiveATC.Net - Listen to live air traffic control over the Internet!
Airport/ARTCC Code
Frequency Search
(e.g., 124.400, 128.75)
Site-wide search
 


Browse Feeds
Top 50 Feeds
HF Oceanic Feeds
Coverage Map
Bad Weather Areas

LiveATC FAQ

Increase Coverage

Contact LiveATC.net
Press Inquiries

LiveATC on iPhone
LiveATC on Android

LiveATC Mobile
(Mobile browser)

ATC Audio Archives
Interesting Recordings

LiveATC Forums

Home Page
About LiveATC.net


Terms of Use
Privacy Policy

AIRMETs/SIGMETs

FAA Airport Status
NAS Status
Arrival Demand


Server Software By:
Icecast.org
Liquidsoap

Select an area of interest:
U.S. Feeds: Class B Airports | Class C Airports | Class D/Other Airports | ARTCC (Centers)
International Feeds: Canada | Europe | Oceania | Asia | South America | North/Central America | Africa
Misc Feeds: HF Feeds
Search by ICAO/IATA airport code:   (e.g., kbos, kjfk, lax, eham, etc.)


Currently Available Live Feeds: 3214
Status Updated: Sat Jun 15 2024 13:09:04 UTC


NOTICE

Unauthorized use prohibited. See LiveATC.net Terms of Service

South America Airport Feeds

 

SACO TMA (Archives)
Cordoba, Argentina

Feed Status: UP
Listen in your browser - HTML5 player(in browser, HTML5)
Click here to listen with your own player(launches your MP3 player)

SACO 151200Z 33003KT CAVOK 07/04 Q1020 NOSIG

SACO Flight Activity (Flightaware)

Listeners: 1 out of 1975 total

Cordoba TMA: 119.100

SACO Tower (Archives)
Cordoba, Argentina

Feed Status: UP
Listen in your browser - HTML5 player(in browser, HTML5)
Click here to listen with your own player(launches your MP3 player)

SACO 151200Z 33003KT CAVOK 07/04 Q1020 NOSIG

SACO Flight Activity (Flightaware)

Listeners: 0 out of 1975 total

Cordoba Tower: 118.300

SACO Tower (Aux 1) (Archives)
Cordoba, Argentina

Feed Status: UP
Listen in your browser - HTML5 player(in browser, HTML5)
Click here to listen with your own player(launches your MP3 player)

SACO 151200Z 33003KT CAVOK 07/04 Q1020 NOSIG

SACO Flight Activity (Flightaware)

Listeners: 0 out of 1975 total

Cordoba Tower (Aux 1): 118.550

SACO Tower (Aux 2) (Archives)
Cordoba, Argentina

Feed Status: UP
Listen in your browser - HTML5 player(in browser, HTML5)
Click here to listen with your own player(launches your MP3 player)

SACO 151200Z 33003KT CAVOK 07/04 Q1020 NOSIG

SACO Flight Activity (Flightaware)

Listeners: 0 out of 1975 total

Cordoba Tower (Aux 2): 119.450

SADL Misc (Archives)
La Plata, Argentina

Feed Status: UP
Listen in your browser - HTML5 player(in browser, HTML5)
Click here to listen with your own player(launches your MP3 player)

METAR NOT AVAILABLE

SADL Flight Activity (Flightaware)

Listeners: 0 out of 1975 total

Air to Air: 123.450
Chascomus: 123.200
Emergency/Guard: 121.500
General: 123.500
La Plata: 119.300
Lobos: 123.300
Planeadores: 123.000
Punta Indio: 130.800
Quilmes: 122.200

SANT Tower/Apps (Archives)
Tucuman, Argentina

Feed Status: UP
Listen in your browser - HTML5 player(in browser, HTML5)
Click here to listen with your own player(launches your MP3 player)

SANT 131600Z 07008KT 040V100 9999 FEW045 33/26 Q1005

SANT Flight Activity (Flightaware)

Listeners: 0 out of 1975 total

Aeroclub Tucuman: 119.000
Aerolineas Argentinas SOC Salta: 131.100
Aerolineas Argentinas SOC Tucuman: 131.950
Air To Air: 123.450
Andes Lineas Aereas: 132.000
Campo Arenal: 130.950
Catamarca Tower: 118.150
Copa Airlines: 129.400
Cordoba Centro Norte: 125.100
Cordoba Centro Sur: 126.500
Emergency/Guard: 121.500
Lan Argentina Operaciones: 131.700
Lan Peru: 131.300
Salta Tower: 128.850
Santiago del Estero Tower: 118.700
Taca Peru: 126.450
Termas de Rio Hondo: 118.200
Termas de Rio Hondo: 119.850
Tucuman Ground: 121.750
Tucuman Ground: 121.750
Tucuman Tower: 118.350
Tucuman Tower: 119.500

SASA Twr/App (Archives)
Salta, Argentina

Feed Status: UP
Listen in your browser - HTML5 player(in browser, HTML5)
Click here to listen with your own player(launches your MP3 player)

SASA 151200Z 36007KT 9999 VCSH FEW008 SCT010 BKN025 14/12 Q1020

SASA Flight Activity (Flightaware)

Listeners: 1 out of 1975 total

Cordoba Approach (North): 128.250
Salta Approach: 124.600
Salta Tower: 126.000
Salta Tower/Ground: 128.850

SAZN Tower (Archives)
Neuquen, Argentina

Feed Status: UP
Listen in your browser - HTML5 player(in browser, HTML5)
Click here to listen with your own player(launches your MP3 player)

SAZN 151200Z 34003KT CAVOK 01/M00 Q1018

SAZN Flight Activity (Flightaware)

Listeners: 1 out of 1975 total

Neuquen Tower/Approach: 119.800

SAZS Gnd/Twr/App (Archives)
Rio Negro, Argentina

Feed Status: UP
Listen in your browser - HTML5 player(in browser, HTML5)
Click here to listen with your own player(launches your MP3 player)

SAZS 151200Z 26006KT 9999 FEW035 SCT060 03/02 Q1015

SAZS Flight Activity (Flightaware)

Listeners: 1 out of 1975 total

Bariloche Twr/App: 119.100
Comodoro Rivadavia Control: 125.500
Ezeiza South: 125.200

SBAR Twr/App (Archives)
Aracaju, Brazil

Feed Status: UP
Listen in your browser - HTML5 player(in browser, HTML5)
Click here to listen with your own player(launches your MP3 player)

SBAR 151300Z 14011KT 9999 FEW030 SCT070 29/22 Q1018

SBAR Flight Activity (Flightaware)

Listeners: 0 out of 1975 total

Santa Maria Approach: 120.300
Santa Maria Tower: 118.800

SBBE Twr/App/SBAZ (Archives)
Belem, Brazil

Feed Status: UP
Listen in your browser - HTML5 player(in browser, HTML5)
Click here to listen with your own player(launches your MP3 player)

SBBE 151300Z 10010KT 9999 FEW016 30/24 Q1014

SBBE Flight Activity (Flightaware)

Listeners: 0 out of 1975 total

Amazonica FIR (SBAZ): 126.500
Amazonica FIR (SBAZ): 128.000
Amazonica FIR (SBAZ): 123.950
Amazonica FIR (SBAZ): 126.150
Amazonica FIR (SBAZ): 126.650
Amazonica FIR (SBAZ): 133.700
Belem Approach: 119.050
Belem Approach: 119.500
Belem Tower: 118.700

SBBR Approach (Archives)
Brasilia, Brazil

Feed Status: UP
Listen in your browser - HTML5 player(in browser, HTML5)
Click here to listen with your own player(launches your MP3 player)

SBBR 151300Z 10013KT 9999 BKN017 20/15 Q1026

SBBR Flight Activity (Flightaware)

Listeners: 0 out of 1975 total

Brasilia Approach: 120.650
Brasilia Approach: 129.150
Brasilia Approach: 129.600
Brasilia Approach (Final): 119.200
Brasilia Departure: 119.500
Brasilia Departure: 119.700

SBBR Ground (Archives)
Brasilia, Brazil

Feed Status: UP
Listen in your browser - HTML5 player(in browser, HTML5)
Click here to listen with your own player(launches your MP3 player)

SBBR 151300Z 10013KT 9999 BKN017 20/15 Q1026

SBBR Flight Activity (Flightaware)

Listeners: 0 out of 1975 total

Brasilia Ground: 121.950
Brasilia Ground: 121.800

SBBR Tower (Archives)
Brasilia, Brazil

Feed Status: UP
Listen in your browser - HTML5 player(in browser, HTML5)
Click here to listen with your own player(launches your MP3 player)

SBBR 151300Z 10013KT 9999 BKN017 20/15 Q1026

SBBR Flight Activity (Flightaware)

Listeners: 0 out of 1975 total

Brasilia Tower: 118.100
Brasilia Tower: 181.750
Brasilia Tower: 118.450

SBBV Tower/Approach (Archives)
Boa Vista, Brazil

Feed Status: UP
Listen in your browser - HTML5 player(in browser, HTML5)
Click here to listen with your own player(launches your MP3 player)

SBBV 151300Z 07005KT 9999 BKN025 FEW030TCU BKN080 24/23 Q1016

SBBV Flight Activity (Flightaware)

Listeners: 0 out of 1975 total

Boa Vista Approach: 120.100
Boa Vista Tower: 118.100

SBCT Gnd/Twr/App
Curitiba, Brazil

Feed Status: DOWN
Offline since: 2024-06-14 00:49:06 UTC

SBCT 151300Z 01005KT CAVOK 21/13 Q1024

Curitiba Approach: 119.950
Curitiba Ground: 121.900
Curitiba Tower: 118.150
Curitiba Tower: 118.900

SBEG Tower/App (Archives)
Manaus, Brazil

Feed Status: UP
Listen in your browser - HTML5 player(in browser, HTML5)
Click here to listen with your own player(launches your MP3 player)

SBEG 151300Z 05005KT 360V100 9999 FEW020 29/24 Q1014

SBEG Flight Activity (Flightaware)

Listeners: 2 out of 1975 total

Emergency/Guard: 121.500
Manaus Approach : 119.250
Manaus Approach: 120.400
Manaus Approach: 119.700
Manaus Tower: 118.300

SBFZ Gnd/Twr/App (Archives)
Fortaleza, Brazil

Feed Status: UP
Listen in your browser - HTML5 player(in browser, HTML5)
Click here to listen with your own player(launches your MP3 player)

SBFZ 151300Z 14012KT 9999 BKN030 29/23 Q1015

SBFZ Flight Activity (Flightaware)

Listeners: 2 out of 1975 total

Ait to Air: 123.450
Ait to Air: 123.400
Fortaleza Approach: 133.000
Fortaleza Approach (backup): 134.550
Fortaleza Ground: 121.950
Fortaleza Tower: 129.000

SBFZ Twr/App/Center
Fortaleza, Brazil

Feed Status: DOWN
Offline since: 2024-06-14 20:26:22 UTC

SBFZ 151300Z 14012KT 9999 BKN030 29/23 Q1015

ACC-RE (Fortaleza Sector): 125.150
ACC-RE (Fortaleza Sector): 126.350
ACC-RE (Fortaleza Sector): 135.250
Fortaleza Approach: 133.000
Fortaleza Tower: 129.000

SBGO Gnd/Twr/App (Archives)
Goiania, Brazil

Feed Status: UP
Listen in your browser - HTML5 player(in browser, HTML5)
Click here to listen with your own player(launches your MP3 player)

SBGO 151300Z 35003KT CAVOK 25/15 Q1024

SBGO Flight Activity (Flightaware)

Listeners: 0 out of 1975 total

Anapolis Approach: 119.150
Anapolis Approach: 120.550
Anapolis Approach: 133.000
Anapolis Approach: 129.450
Emergency/Guard: 121.500
Goiania Ground: 121.700
Goiania Tower: 118.700
Goiania Tower: 121.050

SBWL Control (Archives)
Ilheus, Brazil

Feed Status: UP
Listen in your browser - HTML5 player(in browser, HTML5)
Click here to listen with your own player(launches your MP3 player)

SBIL 151200Z 13009KT 9999 FEW025 28/20 Q1022

SBIL Flight Activity (Flightaware)

Listeners: 0 out of 1975 total

Comandatuba Radio: 130.250
Ilheus Control: 120.100
Recife Center Sector 11: 123.800
Recife Center Sector 13: 133.025
Recife Center Sector 14: 135.300
Self Coordination Frequency (Air to Air): 123.450

SBIZ Info
Imperatriz, Brazil

Feed Status: DOWN
Offline since: 2024-06-14 12:58:23 UTC

SBIZ 151200Z 08006KT 9999 FEW021 30/19 Q1015

Imperatriz Info: 125.650

SBJP Tower (Archives)
Joao Pessoa, Brazil

Feed Status: UP
Listen in your browser - HTML5 player(in browser, HTML5)
Click here to listen with your own player(launches your MP3 player)

SBJP 151300Z 20004KT 9999 BKN010 25/23 Q1016

SBJP Flight Activity (Flightaware)

Listeners: 0 out of 1975 total

Joao Pessoa Tower: 118.300

SBJP Twr/Control/Airlines (Archives)
Joao Pessoa, Brazil

Feed Status: UP
Listen in your browser - HTML5 player(in browser, HTML5)
Click here to listen with your own player(launches your MP3 player)

SBJP 151300Z 20004KT 9999 BKN010 25/23 Q1016

SBJP Flight Activity (Flightaware)

Listeners: 1 out of 1975 total

AZUL: 130.900
GOL: 131.225
Joao Pessoa Tower: 118.300
Recife Control: 119.500
TAM: 130.500

SBJU Tower/Center (Archives)
Juazeiro do Norte, Brazil

Feed Status: UP
Listen in your browser - HTML5 player(in browser, HTML5)
Click here to listen with your own player(launches your MP3 player)

SBJU 151200Z 17009KT 9999 FEW020 27/19 Q1018

SBJU Flight Activity (Flightaware)

Listeners: 0 out of 1975 total

Pilot-to-Pilot: 123.450
Radio Juazeiro: 131.750
Recife Center: 135.250
Recife Center: 125.150

SBKP Tower #2 (Archives)
Campinas, Brazil

Feed Status: UP
Listen in your browser - HTML5 player(in browser, HTML5)
Click here to listen with your own player(launches your MP3 player)

SBKP 151300Z 02008KT CAVOK 23/15 Q1024

SBKP Flight Activity (Flightaware)

Listeners: 2 out of 1975 total

Campinas Tower: 118.250

SBLO Twr/App/Center (Archives)
Londrina, Brazil

Feed Status: UP
Listen in your browser - HTML5 player(in browser, HTML5)
Click here to listen with your own player(launches your MP3 player)

SBLO 151300Z 07007KT CAVOK 24/14 Q1022

SBLO Flight Activity (Flightaware)

Listeners: 2 out of 1975 total

Curitiba Center: 128.350
Curitiba Center: 135.100
Curitiba Center: 125.800
Curitiba Center: 126.950
Emergency/Guard: 121.500
Londrina Approach: 129.700
Londrina Tower: 118.400
UNICOM: 123.450

SBMG Twr/App (Archives)
Maringa, Brazil

Feed Status: UP
Listen in your browser - HTML5 player(in browser, HTML5)
Click here to listen with your own player(launches your MP3 player)

SBMG 151200Z 03013KT CAVOK 23/13 Q1019

SBMG Flight Activity (Flightaware)

Listeners: 3 out of 1975 total

Londrina Approach: 129.700
Maringa Tower: 118.750
UNICOM: 123.450

SBMK RDO/Center
Montes Claros, Brazil

Feed Status: DOWN
Offline since: 2023-12-20 07:10:06 UTC

Brasilia Center (Sector 15): 127.300
Montes Claros RDO: 131.700

SBMO Tower (Archives)
Maceio, Brazil

Feed Status: UP
Listen in your browser - HTML5 player(in browser, HTML5)
Click here to listen with your own player(launches your MP3 player)

SBMO 151300Z 13014KT 8000 VCSH SCT007 BKN017 27/24 Q1018

SBMO Flight Activity (Flightaware)

Listeners: 0 out of 1975 total


SBMQ Tower/App/Center (Archives)
Macapa, Brazil

Feed Status: UP
Listen in your browser - HTML5 player(in browser, HTML5)
Click here to listen with your own player(launches your MP3 player)

SBMQ 151300Z 10007KT 9999 BKN017 SCT082 33/26 Q1014

SBMQ Flight Activity (Flightaware)

Listeners: 1 out of 1975 total

Amazonico Center: 123.950
Amazonico Center: 128.000
Macapa Approach: 119.000
Macapa Tower: 118.000

SBPA Gnd/Twr/App/Center (Archives)
Porto Alegre, Brazil

Feed Status: UP
Listen in your browser - HTML5 player(in browser, HTML5)
Click here to listen with your own player(launches your MP3 player)

SBPA 032300Z 13010KT 5000 -DZ BR OVC007 18/16 Q1012

SBPA Flight Activity (Flightaware)

Listeners: 8 out of 1975 total

BACO (Canoas) Ground: 121.700
BACO (Canoas) Tower: 118.500
BACO (Canoas) Tower (Mil): 122.800
Curitiba Center (Sector 1/South SBPA): 126.750
Curitiba Center (Sector 1/South SBPA): 127.400
Curitiba Center (Sector 2): 123.725
Curitiba Center (Sector 2): 135.900
Curitiba Center (Sector 3/West SBFL): 127.500
Curitiba Center (Sector 3/West SBFL): 126.100
Curitiba Center (Sector 4/South SBFL): 135.850
Curitiba Center (Sector 4/South SBFL): 128.450
Curitiba Center (Sector 5/East SBCT): 124.400
Curitiba Center (Sector 5/East SBCT): 125.400
Curitiba Center (Sector 6/East SBCT Atlantico): 128.400
Curitiba Center (Sector 6/East SBCT Atlantico): 127.050
Curitiba Center (Sector 9/North SBCT): 132.800
Curitiba Center (Sector 9/North SBCT): 126.500
Emergency/Guard: 121.500
Porto Alegre Approach Sector 1: 120.100
Porto Alegre Approach Sector 2: 120.550
Porto Alegre Approach Sector 3: 128.900
Porto Alegre Approach Sector 4: 119.000
Salgado Filho Ground: 121.900
Salgado Filho Tower: 118.100

SBPB Info (Archives)
Parnaiba, Brazil

Feed Status: UP
Listen in your browser - HTML5 player(in browser, HTML5)
Click here to listen with your own player(launches your MP3 player)

SBPB 151300Z 11008KT 9999 SCT020 31/23 Q1014

SBPB Flight Activity (Flightaware)

Listeners: 1 out of 1975 total

Parnaiba Info: 126.600

SBPL RDO/ACC (Archives)
Petrolina, Brazil

Feed Status: UP
Listen in your browser - HTML5 player(in browser, HTML5)
Click here to listen with your own player(launches your MP3 player)

SBPL 151300Z 17012KT 9999 SCT022 27/16 Q1020

SBPL Flight Activity (Flightaware)

Listeners: 4 out of 1975 total

ACC RE Sector 5: 127.500
ACC RE Sector 5: 128.450
ACC RE Sector 6: 125.400
ACC RE Sector 6: 134.900
Air to Air/UNICOM: 123.450
Emergency/Guard: 121.500
Misc: 123.400
Petrolina RDO: 125.700
Recife FIS: 123.625

SBRF App 129.60 (Archives)
Recife, Brazil

Feed Status: UP
Listen in your browser - HTML5 player(in browser, HTML5)
Click here to listen with your own player(launches your MP3 player)

SBRF 151300Z 16006KT 9000 VCSH SCT004 BKN010 FEW025TCU BKN050 24/23 Q1016 RERA

SBRF Flight Activity (Flightaware)

Listeners: 4 out of 1975 total

Recife Approach: 129.600

SBRF Gol Ops (Archives)
Recife, Brazil

Feed Status: UP
Listen in your browser - HTML5 player(in browser, HTML5)
Click here to listen with your own player(launches your MP3 player)

SBRF 151300Z 16006KT 9000 VCSH SCT004 BKN010 FEW025TCU BKN050 24/23 Q1016 RERA

SBRF Flight Activity (Flightaware)

Listeners: 0 out of 1975 total

Gol Ops: 131.225

SBRF Ground (Archives)
Recife, Brazil

Feed Status: UP
Listen in your browser - HTML5 player(in browser, HTML5)
Click here to listen with your own player(launches your MP3 player)

SBRF 151300Z 16006KT 9000 VCSH SCT004 BKN010 FEW025TCU BKN050 24/23 Q1016 RERA

SBRF Flight Activity (Flightaware)

Listeners: 0 out of 1975 total

Recife Ground: 121.850

SBRF LATAM Ops (Archives)
Recife, Brazil

Feed Status: UP
Listen in your browser - HTML5 player(in browser, HTML5)
Click here to listen with your own player(launches your MP3 player)

SBRF 151300Z 16006KT 9000 VCSH SCT004 BKN010 FEW025TCU BKN050 24/23 Q1016 RERA

SBRF Flight Activity (Flightaware)

Listeners: 0 out of 1975 total

LATAM Ops: 130.500

SBRF Recife ACC (Archives)
Recife, Brazil

Feed Status: UP
Listen in your browser - HTML5 player(in browser, HTML5)
Click here to listen with your own player(launches your MP3 player)

SBRF 151300Z 16006KT 9000 VCSH SCT004 BKN010 FEW025TCU BKN050 24/23 Q1016 RERA

SBRF Flight Activity (Flightaware)

Listeners: 1 out of 1975 total

Recife Center: 128.700
Recife Center: 133.650
Recife Center: 134.800

SBRF Tower (Archives)
Recife, Brazil

Feed Status: UP
Listen in your browser - HTML5 player(in browser, HTML5)
Click here to listen with your own player(launches your MP3 player)

SBRF 151300Z 16006KT 9000 VCSH SCT004 BKN010 FEW025TCU BKN050 24/23 Q1016 RERA

SBRF Flight Activity (Flightaware)

Listeners: 8 out of 1975 total

Recife Tower: 125.250
Recife Tower: 118.350
Recife Tower: 118.900

SBSG Tower (Archives)
Sao Goncalo do Amarante, Brazil

Feed Status: UP
Listen in your browser - HTML5 player(in browser, HTML5)
Click here to listen with your own player(launches your MP3 player)

SBSG 151300Z 17007KT 130V210 9999 BKN020 27/23 Q1015

SBSG Flight Activity (Flightaware)

Listeners: 1 out of 1975 total


SBSL Twr/App/FIR
Sao Luis, Brazil

Feed Status: DOWN
Offline since: 2024-05-16 20:29:39 UTC

SBSL 151300Z 11009KT 9999 FEW030 29/22 Q1015

Amazonica Center: 133.700
Sao Luis Approach: 119.100
Sao Luis Tower: 118.900

SBSN Twr/App/ACC (Archives)
Santarem, Brazil

Feed Status: UP
Listen in your browser - HTML5 player(in browser, HTML5)
Click here to listen with your own player(launches your MP3 player)

SBSN 151300Z 09010KT 9999 SCT015 29/25 Q1014

SBSN Flight Activity (Flightaware)

Listeners: 0 out of 1975 total

Brasilia Center/ACC: 123.650
Brasilia Center/ACC: 125.050
Santarem Approach: 119.300
Santarem Tower: 118.100

SBSR AFIS/App/Center (Archives)
Sao Jose do Rio Preto, Brazil

Feed Status: UP
Listen in your browser - HTML5 player(in browser, HTML5)
Click here to listen with your own player(launches your MP3 player)

SBSR 151200Z 07008KT CAVOK 22/13 Q1023

SBSR Flight Activity (Flightaware)

Listeners: 1 out of 1975 total

Academia Approach (North Sector): 119.750
Academia Approach (North Sector): 120.400
Brasilia Center: 135.150
Rio Preto Radio AFIS: 130.850

SBTE Twr/App (Archives)
Teresina, Brazil

Feed Status: UP
Listen in your browser - HTML5 player(in browser, HTML5)
Click here to listen with your own player(launches your MP3 player)

SBTE 151200Z 13008KT CAVOK 28/21 Q1015

SBTE Flight Activity (Flightaware)

Listeners: 1 out of 1975 total

Teresina Approach: 119.600
Teresina Tower: 118.800

SBRE Recife ACC (Archives)
Paulo Afonso, Brazil

Feed Status: UP
Listen in your browser - HTML5 player(in browser, HTML5)
Click here to listen with your own player(launches your MP3 player)

SBRE Flight Activity (Flightaware)

Listeners: 0 out of 1975 total

Recife Center (ACC): 125.400
Recife Center (ACC): 125.450
Recife Center (ACC): 126.850
Recife Center (ACC): 133.650
Recife Center (ACC): 134.500
Recife Center (ACC): 134.900

SBUF AFIS/Center (Archives)
Paulo Afonso, Brazil

Feed Status: UP
Listen in your browser - HTML5 player(in browser, HTML5)
Click here to listen with your own player(launches your MP3 player)

SBUF 151200Z 13011KT 9999 SCT019 BKN020 26/21 Q1019

SBUF Flight Activity (Flightaware)

Listeners: 0 out of 1975 total

Paulo Afonso Radio: 125.850
Recife Center: 133.650
Recife Center: 134.500
Recife Center: 125.450

SBQV AFIS
Vitoria da Conquista, Brazil

Feed Status: DOWN
Offline since: 2023-09-11 01:59:23 UTC

Conquista AFIS: 130.850
Despacho Azul: 131.875
Despacho Passaredo: 132.000

SBVT Tower/Approach
Vitoria, Brazil

Feed Status: DOWN
Offline since: 2024-06-15 13:08:40 UTC

SBVT 151300Z 33004KT 9999 FEW030 26/19 Q1023

SBVT Control Approach: 119.850
SBVT Tower: 118.100

SCEL Gnd/Twr/Radar (Archives)
Santiago, Chile

Feed Status: UP
Listen in your browser - HTML5 player(in browser, HTML5)
Click here to listen with your own player(launches your MP3 player)

SCEL 151300Z 00000KT 6000 NSC 05/04 Q1020 NOSIG

SCEL Flight Activity (Flightaware)

Listeners: 3 out of 1975 total

Santiago Authorizations: 121.700
Santiago Control (Lat 3323S North): 128.100
Santiago Control (Lat 3323S South): 126.300
Santiago Ground (Primary): 122.200
Santiago Ground (Secondary): 122.500
Santiago Radar: 125.400
Santiago Radar: 135.400
Santiago Radar (Arrival, Primary): 129.700
Santiago Radar (Arrival, Secondary): 119.700
Santiago Radar (Arrival, Secondary): 123.800
Santiago Radar (Departure, Primary): 121.100
Santiago Radar (Departure, Secondary): 123.800
Santiago Radar (Information, Primary): 122.400
Santiago Radar (Information, Secondary): 120.800
Santiago Radar (Information, Secondary): 123.800
Santiago Tower (Primary): 118.100
Santiago Tower (Secondary): 118.350
SCTB Tobalaba Tower: 118.700

SEGU App/Dep/Info (Archives)
Guayaquil, Ecuador

Feed Status: UP
Listen in your browser - HTML5 player(in browser, HTML5)
Click here to listen with your own player(launches your MP3 player)

SEGU 151300Z 21007KT 9999 BKN026 BKN100 23/22 Q1013 NOSIG RMK A2991

SEGU Flight Activity (Flightaware)

Listeners: 0 out of 1975 total

Guayaquil Approach: 120.700
Guayaquil Approach (Secondary): 119.300
Guayaquil Info: 126.900

SEGU Gnd/Twr (Archives)
Guayaquil, Ecuador

Feed Status: UP
Listen in your browser - HTML5 player(in browser, HTML5)
Click here to listen with your own player(launches your MP3 player)

SEGU 151300Z 21007KT 9999 BKN026 BKN100 23/22 Q1013 NOSIG RMK A2991

SEGU Flight Activity (Flightaware)

Listeners: 0 out of 1975 total

Guayaquil Ground: 121.900
Guayaquil Ground (Secondary): 121.700
Guayaquil Tower: 118.300
Guayaquil Tower (Secondary): 118.900

SEGU Gnd/Twr/App
Guayaquil, Ecuador

Feed Status: DOWN
Offline since: 2023-10-27 06:00:40 UTC

SEGU 151300Z 21007KT 9999 BKN026 BKN100 23/22 Q1013 NOSIG RMK A2991

Guayaquil Approach: 120.700
Guayaquil Ground: 121.900
Guayaquil Tower: 118.300

SEGU Guayaquil Center (Archives)
Guayaquil, Ecuador

Feed Status: UP
Listen in your browser - HTML5 player(in browser, HTML5)
Click here to listen with your own player(launches your MP3 player)

SEGU 151300Z 21007KT 9999 BKN026 BKN100 23/22 Q1013 NOSIG RMK A2991

SEGU Flight Activity (Flightaware)

Listeners: 0 out of 1975 total

Guayaquil Center: 127.950
Guayaquil Center: 128.300
Guayaquil Center (Secondary): 128.000
Guayaquil Center (Secondary): 123.900

SMZO Tower (Archives)
Paramaribo, Suriname

Feed Status: UP
Listen in your browser - HTML5 player(in browser, HTML5)
Click here to listen with your own player(launches your MP3 player)

SMZO 151300Z 10004KT 9999 SCT020 28/23 Q1015 NOSIG

SMZO Flight Activity (Flightaware)

Listeners: 0 out of 1975 total

Zorg en Hoop Tower: 120.100

SNRZ Area (Archives)
Oliveira, Brazil

Feed Status: UP
Listen in your browser - HTML5 player(in browser, HTML5)
Click here to listen with your own player(launches your MP3 player)

SNRZ Flight Activity (Flightaware)

Listeners: 2 out of 1975 total

Azul: 130.900
Brasilia ACC-BS (Air Control Center): 133.450
Brasilia ACC-BS (Air Control Center): 135.550
Brasilia ACC-BS (Air Control Center): 126.150
Brasilia ACC-BS (Air Control Center): 126.800
Brasilia ACC-BS (Air Control Center): 125.050
Brasilia ACC-BS (Air Control Center): 126.500
Brasilia ACC-BS (Air Control Center): 122.650
Brasilia ACC-BS (Air Control Center): 126.550
Brasilia ACC-BS (Air Control Center): 123.350
Brasilia ACC-BS (Air Control Center): 124.750
Brasilia ACC-BS (Air Control Center): 134.750
Brasilia ACC-BS (Air Control Center): 133.600
Brasilia ACC-BS (Air Control Center): 124.800
Brasilia ACC-BS (Air Control Center): 124.250
Brasilia ACC-BS (Air Control Center): 127.300
Brasilia ACC-BS (Air Control Center): 127.000
Brasilia ACC-BS (Air Control Center): 124.250
Brasilia ACC-BS (Air Control Center): 127.300
Brasilia ACC-BS (Air Control Center): 127.000
Brasilia ACC-BS (Air Control Center): 133.450
Brasilia ACC-BS (Air Control Center): 135.550
Brasilia ACC-BS (Air Control Center): 126.150
Brasilia ACC-BS (Air Control Center): 126.800
Brasilia ACC-BS (Air Control Center): 125.050
Brasilia ACC-BS (Air Control Center): 126.500
Brasilia ACC-BS (Air Control Center): 122.650
Brasilia ACC-BS (Air Control Center): 126.550
Brasilia ACC-BS (Air Control Center): 123.350
Brasilia ACC-BS (Air Control Center): 124.750
Brasilia ACC-BS (Air Control Center): 134.750
Brasilia ACC-BS (Air Control Center): 133.600
Brasilia ACC-BS (Air Control Center): 124.800
Curitiba ACC-CW: 126.500
Curitiba ACC-CW: 134.750
Curitiba ACC-CW: 124.000
Curitiba ACC-CW: 125.350
Emergency: 121.500
Emergency: 121.500
GOL Coordination: 131.225
TAM Coordination: 130.500
TAM Maintenance: 130.600
Trip Coordination: 131.375

SPJC Approach (Archives)
Lima, Peru

Feed Status: UP
Listen in your browser - HTML5 player(in browser, HTML5)
Click here to listen with your own player(launches your MP3 player)

SPJC 151300Z 28005KT 8000 OVC012 17/13 Q1017 NOSIG RMK PP000

SPJC Flight Activity (Flightaware)

Listeners: 0 out of 1975 total

Lima Approach: 119.700

SPJC Ground (Archives)
Lima, Peru

Feed Status: UP
Listen in your browser - HTML5 player(in browser, HTML5)
Click here to listen with your own player(launches your MP3 player)

SPJC 151300Z 28005KT 8000 OVC012 17/13 Q1017 NOSIG RMK PP000

SPJC Flight Activity (Flightaware)

Listeners: 0 out of 1975 total

Lima Ground: 121.900

SPJC Tower (Archives)
Lima, Peru

Feed Status: UP
Listen in your browser - HTML5 player(in browser, HTML5)
Click here to listen with your own player(launches your MP3 player)

SPJC 151300Z 28005KT 8000 OVC012 17/13 Q1017 NOSIG RMK PP000

SPJC Flight Activity (Flightaware)

Listeners: 1 out of 1975 total

Lima Tower: 118.100

SPQU Ground/Tower (Archives)
Arequipa, Peru

Feed Status: UP
Listen in your browser - HTML5 player(in browser, HTML5)
Click here to listen with your own player(launches your MP3 player)

SPQU 151300Z 07004KT CAVOK 15/M07 Q1030 NOSIG RMK PP000

SPQU Flight Activity (Flightaware)

Listeners: 0 out of 1975 total

Arequipa Alternate: 118.200
Arequipa Ground: 121.900
Arequipa Tower: 118.700
Emergency/Guard: 121.500

SPQU Misc (Archives)
Arequipa, Peru

Feed Status: UP
Listen in your browser - HTML5 player(in browser, HTML5)
Click here to listen with your own player(launches your MP3 player)

SPQU 151300Z 07004KT CAVOK 15/M07 Q1030 NOSIG RMK PP000

SPQU Flight Activity (Flightaware)

Listeners: 0 out of 1975 total

Emergency/Guard: 121.500
Ilo Tower: 126.900
Iquique ACC: 128.700
Radar Sur-dos: 128.800
Tacna Tower: 118.400

SPST Tower (Archives)
Tarapoto, Peru

Feed Status: UP
Listen in your browser - HTML5 player(in browser, HTML5)
Click here to listen with your own player(launches your MP3 player)

SPST 151300Z VRB02KT 9999 FEW015 27/23 Q1014 RMK PP000

SPST Flight Activity (Flightaware)

Listeners: 0 out of 1975 total

Tarapoto Tower: 118.400

SSBL Air to Air
Blumenau, Brazil

Feed Status: DOWN
Offline since: 2024-06-02 07:20:05 UTC

Air to Air: 123.450

SUAA Tower (Archives)
Montevideo, Uruguay

Feed Status: UP
Listen in your browser - HTML5 player(in browser, HTML5)
Click here to listen with your own player(launches your MP3 player)

SUAA 151300Z 18002KT CAVOK 13/13 Q1018

SUAA Flight Activity (Flightaware)

Listeners: 2 out of 1975 total

Adami Tower: 118.400
Adami Tower (backup): 122.100
Emergency/Guard: 121.500

SUCM AFIS/SUCA/SADF Twr (Archives)
Carmelo, Uruguay

Feed Status: UP
Listen in your browser - HTML5 player(in browser, HTML5)
Click here to listen with your own player(launches your MP3 player)

METAR NOT AVAILABLE

SUCM Flight Activity (Flightaware)

Listeners: 0 out of 1975 total

Carmelo AFIS: 118.300
Carmelo AFIS (backup): 122.100
Colonia Tower (SUCA): 120.800
San Fernando Tower (SADF): 120.700

SUDU Twr/App/FIR (Archives)
Durazno, Uruguay

Feed Status: UP
Listen in your browser - HTML5 player(in browser, HTML5)
Click here to listen with your own player(launches your MP3 player)

SUDU 151300Z 16006KT 8000 NSC 13/13 Q1018

SUDU Flight Activity (Flightaware)

Listeners: 1 out of 1975 total

Durazno Twr/App: 120.400
Durazno Twr/App: 126.200
Montevideo Control - Centro (Central): 126.300

SUGA Twr/Info (Archives)
Pando, Uruguay

Feed Status: UP
Listen in your browser - HTML5 player(in browser, HTML5)
Click here to listen with your own player(launches your MP3 player)

SUGA Flight Activity (Flightaware)

Listeners: 0 out of 1975 total

SUGA Info: 126.200
SUGA Tower: 118.500

SULS Tower (Archives)
Punta del Este, Uruguay

Feed Status: UP
Listen in your browser - HTML5 player(in browser, HTML5)
Click here to listen with your own player(launches your MP3 player)

SULS 151300Z 26005KT 5000 BR NSC 14/14 Q1018

SULS Flight Activity (Flightaware)

Listeners: 0 out of 1975 total

SULS A/G: 122.100
SULS Tower: 118.300

SUMO Tower
Melo, Uruguay

Feed Status: DOWN
Offline since: 2023-05-06 13:19:23 UTC

SUMO 191500Z 05006KT 9999 FEW030 BKN200 33/16 Q1010

Melo Ramp: 122.100
Melo Tower: 118.600

Montevideo Control (Antena Este)
Montevideo, Uruguay

Feed Status: DOWN
Offline since: 2023-11-28 23:51:23 UTC

SUMU 151300Z 00000KT 9999 FEW026 13/13 Q1018 NOSIG

Montevideo Control: 128.500
Montevideo Control: 126.300

SUMU App/Dep (Archives)
Montevideo, Uruguay

Feed Status: UP
Listen in your browser - HTML5 player(in browser, HTML5)
Click here to listen with your own player(launches your MP3 player)

SUMU 151300Z 00000KT 9999 FEW026 13/13 Q1018 NOSIG

SUMU Flight Activity (Flightaware)

Listeners: 1 out of 1975 total

SUMU Approach: 119.200
SUMU Approach: 120.200
SUMU Control: 128.500

SUMU Twr/App (Archives)
Montevideo, Uruguay

Feed Status: UP
Listen in your browser - HTML5 player(in browser, HTML5)
Click here to listen with your own player(launches your MP3 player)

SUMU 151300Z 00000KT 9999 FEW026 13/13 Q1018 NOSIG

SUMU Flight Activity (Flightaware)

Listeners: 1 out of 1975 total

SUMU Approach: 119.200
SUMU Tower: 118.100

SUMU Twr/Info (Archives)
Montevideo, Uruguay

Feed Status: UP
Listen in your browser - HTML5 player(in browser, HTML5)
Click here to listen with your own player(launches your MP3 player)

SUMU 151300Z 00000KT 9999 FEW026 13/13 Q1018 NOSIG

SUMU Flight Activity (Flightaware)

Listeners: 0 out of 1975 total

SUMU Info: 121.800
SUMU Tower: 118.100

SUPE CTAF (Archives)
Punta del Este, Uruguay

Feed Status: UP
Listen in your browser - HTML5 player(in browser, HTML5)
Click here to listen with your own player(launches your MP3 player)

SULS 151300Z 26005KT 5000 BR NSC 14/14 Q1018

SULS Flight Activity (Flightaware)

Listeners: 0 out of 1975 total

Air to Air: 123.450
SUPE CTAF: 118.700

SUPU AFIS (Archives)
Paysandu, Uruguay

Feed Status: UP
Listen in your browser - HTML5 player(in browser, HTML5)
Click here to listen with your own player(launches your MP3 player)

SUPU 040900Z 10005KT 9999 FEW020TCU BKN070 FEW200 23/23 Q1010

SUPU Flight Activity (Flightaware)

Listeners: 0 out of 1975 total

Paysandu AFIS: 118.200
Paysandu AFIS: 118.700

SURV Tower/Ramp
Rivera, Uruguay

Feed Status: DOWN
Offline since: 2024-06-13 14:35:06 UTC

SURV 110000Z 16002KT CAVOK 19/11 Q1020

Rivera Flying Club Ops: 118.100
Rivera Ramp/Tower: 118.000
Rivera Ramp/Tower: 122.100

SUSO Tower/Ramp (Archives)
Salto, Uruguay

Feed Status: UP
Listen in your browser - HTML5 player(in browser, HTML5)
Click here to listen with your own player(launches your MP3 player)

SUSO 151300Z 16007KT 9999 FEW020 BKN083 15/12 Q1017

SUSO Flight Activity (Flightaware)

Listeners: 0 out of 1975 total


SVMI/SVZM FIR
Maiquetia, Venezuela

Feed Status: DOWN
Offline since: 2024-03-23 12:45:22 UTC

Approach: 120.100
Emergency/Guard: 121.500
Emergency/Guard: 243.000
Maiquetia ACC S135 Aux: 123.800
Maiquetia ACC S246 Aux: 128.100
Maiquetia ACC Sector S1: 128.500
Maiquetia ACC Sector S2: 125.200
Maiquetia ACC Sector S3: 126.600
Maiquetia ACC Sector S4: 126.000
Maiquetia ACC Sector S5: 128.700
Maiquetia ACC Sector S6: 127.950

SVPR Twr/App/FIR (Archives)
Ciudad Guayana, Venezuela

Feed Status: UP
Listen in your browser - HTML5 player(in browser, HTML5)
Click here to listen with your own player(launches your MP3 player)

SVPR Flight Activity (Flightaware)

Listeners: 0 out of 1975 total

Emergency/Guard: 121.500
FIR 6: 126.000
Guayana Approach (Primary): 119.500
Guayana Approach (Secondary): 120.300
Guayana Tower (Primary): 118.000
Guayana Tower (Secondary): 123.500
SMC: 121.900

TNCA Twr/App/Apron (Archives)
Oranjestad, Aruba

Feed Status: UP
Listen in your browser - HTML5 player(in browser, HTML5)
Click here to listen with your own player(launches your MP3 player)

TNCA 151300Z 10018KT 9999 FEW018 30/25 Q1013 NOSIG

TNCA Flight Activity (Flightaware)

Listeners: 0 out of 1975 total

Beatrix Ground (Apron): 121.600
Beatrix Tower: 118.000
Beatrix Twr/App: 120.900
Emergency/Guard: 121.500
Search/Rescue: 123.100

TNCB ATIS (Archives)
Kralendijk, Bonaire

Feed Status: UP
Listen in your browser - HTML5 player(in browser, HTML5)
Click here to listen with your own player(launches your MP3 player)

TNCB 151155Z 11015KT 080V140 9999 SCT018 30/25 Q1013

TNCB Flight Activity (Flightaware)

Listeners: 0 out of 1975 total

Bonaire ATIS: 132.300

TNCB Tower (Archives)
Kralendijk, Bonaire

Feed Status: UP
Listen in your browser - HTML5 player(in browser, HTML5)
Click here to listen with your own player(launches your MP3 player)

TNCB 151155Z 11015KT 080V140 9999 SCT018 30/25 Q1013

TNCB Flight Activity (Flightaware)

Listeners: 0 out of 1975 total

Bonaire Tower: 118.700

TNCC ATIS (Archives)
Willemstad, Curacao

Feed Status: UP
Listen in your browser - HTML5 player(in browser, HTML5)
Click here to listen with your own player(launches your MP3 player)

TNCC 151200Z 10013KT 9999 SCT018 30/26 Q1013 NOSIG=

TNCC Flight Activity (Flightaware)

Listeners: 1 out of 1975 total

Hato ATIS: 132.600

TNCC Control (Archives)
Willemstad, Curacao

Feed Status: UP
Listen in your browser - HTML5 player(in browser, HTML5)
Click here to listen with your own player(launches your MP3 player)

TNCC 151200Z 10013KT 9999 SCT018 30/26 Q1013 NOSIG=

TNCC Flight Activity (Flightaware)

Listeners: 1 out of 1975 total

Curacao Control: 124.100
Curacao Control: 127.100

TNCC Terminal (Archives)
Willemstad, Curacao

Feed Status: UP
Listen in your browser - HTML5 player(in browser, HTML5)
Click here to listen with your own player(launches your MP3 player)

TNCC 151200Z 10013KT 9999 SCT018 30/26 Q1013 NOSIG=

TNCC Flight Activity (Flightaware)

Listeners: 0 out of 1975 total

Curacao Terminal (1700-2300Z): 119.800

TNCC Tower (Archives)
Willemstad, Curacao

Feed Status: UP
Listen in your browser - HTML5 player(in browser, HTML5)
Click here to listen with your own player(launches your MP3 player)

TNCC 151200Z 10013KT 9999 SCT018 30/26 Q1013 NOSIG=

TNCC Flight Activity (Flightaware)

Listeners: 0 out of 1975 total

Hato Tower: 118.300

TTCP Gnd/Twr/App (Archives)
Scarborough, Trinidad and Tobago

Feed Status: UP
Listen in your browser - HTML5 player(in browser, HTML5)
Click here to listen with your own player(launches your MP3 player)

TTCP 151200Z 11008KT 9999 FEW017 29/25 Q1015 NOSIG

TTCP Flight Activity (Flightaware)

Listeners: 0 out of 1975 total

Piarco Approach: 119.000
Robinson Ground: 121.700
Robinson Tower: 118.400

TTPP Apron/Gnd/Twr (Archives)
Port of Spain, Trinidad and Tobago

Feed Status: UP
Listen in your browser - HTML5 player(in browser, HTML5)
Click here to listen with your own player(launches your MP3 player)

TTPP 151200Z 10007KT 8000 FEW018 28/26 Q1015 NOSIG

TTPP Flight Activity (Flightaware)

Listeners: 3 out of 1975 total

Piarco Apron: 121.750
Piarco Ground: 121.900
Piarco Tower: 118.100

TTPP Piarco App/Center (Archives)
Port of Spain, Trinidad and Tobago

Feed Status: UP
Listen in your browser - HTML5 player(in browser, HTML5)
Click here to listen with your own player(launches your MP3 player)

TTPP 151200Z 10007KT 8000 FEW018 28/26 Q1015 NOSIG

TTPP Flight Activity (Flightaware)

Listeners: 1 out of 1975 total

Piarco Approach: 119.550
Piarco Approach: 119.000
Piarco Approach (backup): 124.000
Piarco Center: 123.700
Piarco Center (Oceanic): 126.500
Piarco Center (South Sector): 125.400
Piarco Center Oceanic (Backup): 133.100